Torch, Ohio
Current Conditions -  °F | °C
As of 11:29 AM on Sunday 21 Dec 2014 (Local Time) from KPKB Reporting Station
Broken Clouds Broken Clouds  
Wind Chill: 37°   Ceiling: 2200
Heat Index: 37°   Visibility: 10mi
Dew Point: 24°   Wind: 3mph
Humidity: 59%   Direction: 90°E
Pressure: 30.33"   Gusts: NA
Location:  39.24°N, 81.75°W
Report Text: KPKB 211629Z 09003KT 10SM BKN022 03/M04 A3033 RMK AO2 T00281044
Loading
Personal Weather Stations






























Interactive Weather Map New forecast layout! Learn more

10-Day Weather Forecast

Advertisements
Track Severe Weather on mobile